Fort Davis, Texas
Current Conditions -  °F | °C
As of 10:35 AM on Wednesday 22 Oct 2014 (Local Time) from KMRF Reporting Station
Overcast Overcast  
Wind Chill: 61°   Ceiling: 4300
Heat Index: 61°   Visibility: 10mi
Dew Point: 57°   Wind: 7mph
Humidity: 88%   Direction: 150°SSE
Pressure: 30.22"   Gusts: NA
Location:  30.59°N, 103.9°W
Report Text: KMRF 221535Z AUTO 15006KT 10SM OVC043 16/14 A3022 RMK AO1
Loading
Personal Weather Stations






























Interactive Weather Map
Tropical Storm Tracking
New forecast layout! Learn more

10-Day Weather Forecast

Advertisements
Track Severe Weather on mobile